Time;durP1;ratioP1;P1;durP2;ratioP2;P2;SDS_P1;SDS_P2;PMS_P1;PMS_P2;Temp;Humidity;BMP_temperature;BMP_pressure;BME280_temperature;BME280_humidity;BME280_pressure;Samples;Min_cycle;Max_cycle;Signal;HPM_P1;HPM_P2
2022/10/29 00:01:08;;;;;;;26.10;9.23;;;;;;;11.74;100.00;102277.19;5089421;28;20035;-75
2022/10/29 00:03:35;;;;;;;24.40;8.53;;;;;;;11.78;100.00;102275.78;5056733;28;20123;-74
2022/10/29 00:06:06;;;;;;;28.73;8.30;;;;;;;11.72;100.00;102273.72;5068367;28;20147;-74
2022/10/29 00:08:34;;;;;;;18.15;7.10;;;;;;;11.75;100.00;102265.16;5071742;28;20399;-75
2022/10/29 00:11:15;;;;;;;22.20;7.75;;;;;;;11.73;100.00;102261.72;5089002;28;20119;-74
2022/10/29 00:13:41;;;;;;;22.50;7.32;;;;;;;11.80;100.00;102262.78;5089717;28;20085;-74
2022/10/29 00:16:09;;;;;;;32.10;8.98;;;;;;;11.81;100.00;102248.00;5088667;28;20141;-74
2022/10/29 00:18:35;;;;;;;23.67;8.30;;;;;;;11.76;100.00;102248.53;5082951;28;20158;-75
2022/10/29 00:21:04;;;;;;;31.87;7.93;;;;;;;11.75;100.00;102245.97;5071628;28;20155;-74
2022/10/29 00:23:30;;;;;;;20.13;8.10;;;;;;;11.73;100.00;102237.00;5071030;28;20115;-74
2022/10/29 00:25:57;;;;;;;22.53;7.63;;;;;;;11.69;100.00;102246.66;5086916;28;20036;-73
2022/10/29 00:28:23;;;;;;;25.70;7.63;;;;;;;11.66;100.00;102246.97;5067808;28;20616;-74
2022/10/29 00:30:48;;;;;;;24.10;8.80;;;;;;;11.65;100.00;102254.38;5071585;28;20558;-74
2022/10/29 00:33:15;;;;;;;20.27;6.80;;;;;;;11.63;100.00;102255.56;5088619;28;20028;-73
2022/10/29 00:35:40;;;;;;;;;;;;;;;11.58;100.00;102253.28;5072267;28;20398;-74
2022/10/29 00:38:05;;;;;;;33.30;7.35;;;;;;;11.55;100.00;102248.13;5088995;28;19916;-73
2022/10/29 00:40:35;;;;;;;22.40;6.73;;;;;;;11.51;100.00;102245.88;5070016;28;20395;-74
2022/10/29 00:43:12;;;;;;;24.98;8.25;;;;;;;11.47;100.00;102236.28;5088915;28;20039;-73
2022/10/29 00:45:43;;;;;;;26.38;8.45;;;;;;;11.42;100.00;102247.75;5089411;28;20065;-73
2022/10/29 00:48:09;;;;;;;21.83;7.82;;;;;;;11.37;100.00;102246.56;5089372;28;20032;-73
2022/10/29 00:50:34;;;;;;;20.77;7.77;;;;;;;11.36;100.00;102247.59;5068686;28;20481;-73
2022/10/29 00:53:01;;;;;;;29.33;8.47;;;;;;;11.32;100.00;102241.56;5088012;28;20055;-73
2022/10/29 00:55:26;;;;;;;20.90;8.57;;;;;;;11.29;100.00;102236.44;5080352;28;20434;-73
2022/10/29 00:57:54;;;;;;;18.47;7.63;;;;;;;11.28;100.00;102222.88;5067591;28;20040;-73
2022/10/29 01:00:20;;;;;;;21.70;7.57;;;;;;;11.25;100.00;102226.81;5086167;28;20110;-70
2022/10/29 01:02:45;;;;;;;25.77;7.43;;;;;;;11.24;100.00;102232.44;5088602;28;20028;-70
2022/10/29 01:05:15;;;;;;;27.90;7.30;;;;;;;11.23;100.00;102231.63;5087712;28;20028;-70
2022/10/29 01:07:41;;;;;;;23.98;7.13;;;;;;;11.26;100.00;102231.25;5087685;28;20447;-70
2022/10/29 01:10:08;;;;;;;15.88;7.13;;;;;;;11.24;100.00;102214.13;5065436;28;20138;-70
2022/10/29 01:12:55;;;;;;;19.73;7.28;;;;;;;11.23;100.00;102228.88;5086691;28;20444;-71
2022/10/29 01:15:23;;;;;;;23.00;7.03;;;;;;;11.18;100.00;102227.66;5087624;28;20411;-70
2022/10/29 01:17:48;;;;;;;20.23;8.18;;;;;;;11.15;100.00;102226.09;5087556;28;20055;-69
2022/10/29 01:20:53;;;;;;;25.93;8.00;;;;;;;11.12;100.00;102217.34;5087565;28;20036;-70
2022/10/29 01:23:27;;;;;;;16.65;7.43;;;;;;;11.10;100.00;102216.66;5065593;28;20025;-71
2022/10/29 01:26:37;;;;;;;18.67;6.57;;;;;;;11.11;100.00;102205.50;5083859;28;20044;-70
2022/10/29 01:29:13;;;;;;;15.63;7.15;;;;;;;11.17;100.00;102210.34;5069559;28;20130;-70
2022/10/29 01:31:52;;;;;;;17.45;7.55;;;;;;;11.20;100.00;102198.19;5070023;28;20039;-70
2022/10/29 01:34:24;;;;;;;25.58;7.47;;;;;;;11.18;100.00;102200.22;5075827;28;20039;-70
2022/10/29 01:37:04;;;;;;;20.52;7.15;;;;;;;11.10;100.00;102198.31;5086411;28;20031;-70
2022/10/29 01:39:32;;;;;;;19.77;7.35;;;;;;;11.14;100.00;102190.59;5088352;28;20035;-70
2022/10/29 01:42:34;;;;;;;17.75;7.97;;;;;;;11.21;100.00;102187.03;5088749;28;20024;-72
2022/10/29 01:45:12;;;;;;;17.02;6.53;;;;;;;11.14;100.00;102183.25;5069018;28;20093;-72
2022/10/29 01:47:44;;;;;;;17.73;7.35;;;;;;;11.06;100.00;102196.09;5081323;28;20524;-70
2022/10/29 01:50:13;;;;;;;16.77;7.40;;;;;;;11.00;100.00;102180.31;5087880;28;20487;-70
2022/10/29 01:52:39;;;;;;;19.10;6.97;;;;;;;10.98;100.00;102182.34;5088797;28;20031;-70
2022/10/29 01:55:05;;;;;;;15.18;6.85;;;;;;;10.94;100.00;102181.81;5090060;28;20038;-71
2022/10/29 01:57:38;;;;;;;15.82;6.63;;;;;;;10.97;100.00;102191.59;5089539;28;20085;-69
2022/10/29 02:00:03;;;;;;;15.80;6.65;;;;;;;10.98;100.00;102182.34;5073942;28;20131;-71
2022/10/29 02:02:44;;;;;;;18.07;6.80;;;;;;;10.95;100.00;102179.94;5092061;28;20106;-70
2022/10/29 02:05:34;;;;;;;12.98;6.57;;;;;;;10.85;100.00;102180.09;5090761;28;20024;-70
2022/10/29 02:08:02;;;;;;;28.73;7.15;;;;;;;10.86;100.00;102173.59;5073217;28;20039;-70
2022/10/29 02:10:39;;;;;;;28.90;6.53;;;;;;;10.86;100.00;102173.59;5089985;28;20407;-70
2022/10/29 02:13:06;;;;;;;12.73;6.03;;;;;;;10.84;100.00;102180.25;5079590;28;20028;-71
2022/10/29 02:15:36;;;;;;;15.95;6.65;;;;;;;10.79;100.00;102183.47;5091223;28;20276;-70
2022/10/29 02:18:04;;;;;;;25.63;6.50;;;;;;;10.79;100.00;102178.00;5090045;28;20495;-71
2022/10/29 02:20:30;;;;;;;11.68;6.28;;;;;;;10.77;100.00;102180.06;5090755;28;20031;-69
2022/10/29 02:22:55;;;;;;;22.17;7.53;;;;;;;10.78;100.00;102169.97;5090222;28;20082;-72
2022/10/29 02:25:22;;;;;;;19.63;6.57;;;;;;;10.77;100.00;102160.88;5090953;28;20482;-70
2022/10/29 02:27:47;;;;;;;16.83;7.50;;;;;;;10.73;100.00;102164.13;5090558;28;20055;-70
2022/10/29 02:30:13;;;;;;;17.23;7.07;;;;;;;10.73;100.00;102162.22;5091596;28;20789;-71
2022/10/29 02:32:38;;;;;;;16.03;6.57;;;;;;;10.76;100.00;102147.31;5080260;28;20392;-70
2022/10/29 02:35:04;;;;;;;13.68;6.57;;;;;;;10.76;100.00;102147.31;5087593;28;20107;-71
2022/10/29 02:37:30;;;;;;;20.33;6.73;;;;;;;10.73;100.00;102145.78;5091885;28;20035;-70
2022/10/29 02:39:55;;;;;;;15.63;6.73;;;;;;;10.70;100.00;102139.78;5089066;28;20124;-70
2022/10/29 02:42:21;;;;;;;12.20;6.13;;;;;;;10.68;100.00;102142.69;5091268;28;20030;-70
2022/10/29 02:44:46;;;;;;;15.23;6.50;;;;;;;10.69;100.00;102140.81;5073320;28;20020;-70
2022/10/29 02:47:11;;;;;;;17.07;7.17;;;;;;;10.68;100.00;102130.88;5073621;28;20031;-70
2022/10/29 02:49:37;;;;;;;16.53;6.80;;;;;;;10.69;100.00;102141.69;5065520;28;20031;-70
2022/10/29 02:52:02;;;;;;;17.50;6.40;;;;;;;10.72;100.00;102135.84;5072126;28;20489;-69
2022/10/29 02:54:28;;;;;;;24.53;6.17;;;;;;;10.70;100.00;102139.78;5091077;28;20387;-71
2022/10/29 02:56:53;;;;;;;23.10;6.20;;;;;;;10.67;100.00;102140.13;5072792;28;20491;-71
2022/10/29 02:59:19;;;;;;;18.97;7.17;;;;;;;10.69;100.00;102143.53;5072121;28;20036;-70
2022/10/29 03:01:44;;;;;;;25.63;7.47;;;;;;;10.65;100.00;102139.41;5090645;28;20069;-71
2022/10/29 03:04:10;;;;;;;9.17;6.23;;;;;;;10.68;100.00;102142.69;5090028;28;20039;-70
2022/10/29 03:06:36;;;;;;;19.35;7.72;;;;;;;10.68;100.00;102136.34;5090483;28;20467;-70
2022/10/29 03:09:02;;;;;;;19.23;7.30;;;;;;;10.68;100.00;102142.69;5090056;28;20127;-71
2022/10/29 03:11:27;;;;;;;15.80;6.70;;;;;;;10.67;100.00;102134.66;5088677;28;20480;-71
2022/10/29 03:13:52;;;;;;;14.17;6.13;;;;;;;10.64;100.00;102138.56;5091452;28;20035;-71
2022/10/29 03:16:18;;;;;;;15.53;5.80;;;;;;;10.62;100.00;102137.03;5068649;28;20047;-70
2022/10/29 03:18:43;;;;;;;10.37;5.43;;;;;;;10.62;100.00;102147.97;5071870;28;20084;-71
2022/10/29 03:21:08;;;;;;;14.10;6.60;;;;;;;10.64;100.00;102130.34;5061599;28;20054;-71
2022/10/29 03:23:34;;;;;;;14.93;6.93;;;;;;;10.63;100.00;102127.78;5091195;28;20039;-71
2022/10/29 03:25:59;;;;;;;21.33;6.63;;;;;;;10.63;100.00;102123.13;5090203;28;20099;-70
2022/10/29 03:28:26;;;;;;;16.93;6.70;;;;;;;10.63;100.00;102123.13;5073203;28;20028;-70
2022/10/29 03:30:52;;;;;;;18.52;7.15;;;;;;;10.63;100.00;102122.28;5072817;28;20451;-70
2022/10/29 03:33:17;;;;;;;12.80;5.57;;;;;;;10.65;100.00;102122.97;5087826;28;20098;-71
2022/10/29 03:35:42;;;;;;;21.77;7.67;;;;;;;10.66;100.00;102122.81;5090412;28;20032;-70
2022/10/29 03:38:08;;;;;;;14.57;6.47;;;;;;;10.69;100.00;102127.97;5090418;28;20032;-70
2022/10/29 03:40:33;;;;;;;15.23;5.87;;;;;;;10.68;100.00;102119.91;5089607;28;20093;-71
2022/10/29 03:42:58;;;;;;;14.27;6.20;;;;;;;10.64;100.00;102129.47;5090205;28;20072;-72
2022/10/29 03:45:24;;;;;;;10.50;5.53;;;;;;;10.66;100.00;102124.69;5090324;28;20035;-70
2022/10/29 03:47:50;;;;;;;10.18;5.75;;;;;;;10.66;100.00;102117.34;5090364;28;20032;-70
2022/10/29 03:50:15;;;;;;;17.30;6.17;;;;;;;10.68;100.00;102112.53;5070729;28;20089;-71
2022/10/29 03:52:41;;;;;;;12.93;6.80;;;;;;;10.72;100.00;102110.34;5089277;28;20028;-70
2022/10/29 03:55:06;;;;;;;15.90;5.47;;;;;;;10.69;100.00;102103.31;5089853;28;20032;-70
2022/10/29 03:57:32;;;;;;;17.97;5.90;;;;;;;10.68;100.00;102101.56;5075025;28;20029;-73
2022/10/29 03:59:57;;;;;;;15.83;7.33;;;;;;;10.69;100.00;102092.34;5089955;28;20034;-71
2022/10/29 04:02:23;;;;;;;11.80;6.67;;;;;;;10.69;100.00;102086.88;5089595;28;20089;-70
2022/10/29 04:04:49;;;;;;;15.40;6.90;;;;;;;10.71;100.00;102101.25;5089593;28;20039;-70
2022/10/29 04:07:14;;;;;;;16.13;6.28;;;;;;;10.70;100.00;102090.44;5067845;28;20487;-71
2022/10/29 04:09:39;;;;;;;16.30;7.07;;;;;;;10.73;100.00;102093.69;5087284;28;20031;-72
2022/10/29 04:12:05;;;;;;;17.73;6.95;;;;;;;10.80;100.00;102088.41;5087630;28;20024;-70
2022/10/29 04:14:31;;;;;;;23.53;6.50;;;;;;;10.83;100.00;102080.72;5088694;28;20031;-72
2022/10/29 04:16:57;;;;;;;16.67;6.03;;;;;;;10.83;100.00;102093.56;5065875;28;20060;-71
2022/10/29 04:19:22;;;;;;;19.55;6.93;;;;;;;10.85;100.00;102089.66;5078388;28;20110;-70
2022/10/29 04:21:48;;;;;;;20.67;8.27;;;;;;;10.93;100.00;102086.91;5088111;28;20040;-70
2022/10/29 04:24:13;;;;;;;23.45;7.30;;;;;;;10.91;100.00;102071.66;5088945;28;20032;-71
2022/10/29 04:26:40;;;;;;;14.17;7.27;;;;;;;10.96;100.00;102072.88;5087673;28;20032;-70
2022/10/29 04:29:06;;;;;;;9.95;6.20;;;;;;;10.94;100.00;102071.31;5088677;28;20035;-71
2022/10/29 04:31:31;;;;;;;12.83;6.83;;;;;;;10.90;100.00;102072.69;5090629;28;20032;-70
2022/10/29 04:33:56;;;;;;;17.43;7.30;;;;;;;10.92;100.00;102078.84;5088974;28;20463;-71
2022/10/29 04:36:22;;;;;;;10.63;6.03;;;;;;;10.93;100.00;102075.06;5067874;28;20024;-70
2022/10/29 04:38:49;;;;;;;27.93;6.73;;;;;;;10.94;100.00;102065.84;5066388;28;20118;-70
2022/10/29 04:41:14;;;;;;;17.90;7.60;;;;;;;10.92;100.00;102074.22;5088832;28;20115;-71
2022/10/29 04:43:39;;;;;;;16.43;6.23;;;;;;;10.98;100.00;102078.16;5090875;28;20525;-70
2022/10/29 04:46:04;;;;;;;17.30;6.77;;;;;;;10.97;100.00;102066.34;5087566;28;20023;-70
2022/10/29 04:48:30;;;;;;;19.10;7.23;;;;;;;10.99;100.00;102056.06;5089436;28;20070;-72
2022/10/29 04:50:55;;;;;;;25.88;7.57;;;;;;;11.03;100.00;102064.78;5088111;28;20383;-71
2022/10/29 04:53:21;;;;;;;14.67;6.83;;;;;;;11.08;100.00;102070.63;5088717;28;20043;-70
2022/10/29 04:55:46;;;;;;;10.30;6.57;;;;;;;11.09;100.00;102058.63;5070470;28;20119;-70
2022/10/29 04:58:14;;;;;;;16.20;7.53;;;;;;;11.12;100.00;102063.78;5086734;28;20135;-71
2022/10/29 05:00:39;;;;;;;15.93;7.03;;;;;;;11.11;100.00;102059.34;5087583;28;20111;-70
2022/10/29 05:03:04;;;;;;;11.07;7.00;;;;;;;11.12;100.00;102058.28;5086111;28;20115;-70
2022/10/29 05:05:30;;;;;;;14.40;8.20;;;;;;;11.16;100.00;102040.47;5088403;28;20024;-69
2022/10/29 05:08:00;;;;;;;12.53;7.10;;;;;;;11.18;100.00;102041.16;5086323;28;20059;-71
2022/10/29 05:10:29;;;;;;;15.15;7.28;;;;;;;11.21;100.00;102041.66;5088209;28;20498;-70
2022/10/29 05:12:59;;;;;;;13.18;7.63;;;;;;;11.23;100.00;102036.88;5100239;28;20032;-71
2022/10/29 05:15:26;;;;;;;20.27;7.30;;;;;;;11.28;100.00;102045.44;5087580;28;20116;-70
2022/10/29 05:17:51;;;;;;;12.27;6.60;;;;;;;11.30;100.00;102045.25;5088346;28;20118;-70
2022/10/29 05:20:16;;;;;;;25.70;8.40;;;;;;;11.33;100.00;102037.56;5086963;28;20644;-70
2022/10/29 05:22:42;;;;;;;16.40;8.50;;;;;;;11.36;100.00;102042.69;5087564;28;20662;-70
2022/10/29 05:25:07;;;;;;;12.70;6.47;;;;;;;11.42;100.00;102032.91;5069064;28;20122;-69
2022/10/29 05:27:32;;;;;;;14.97;7.13;;;;;;;11.45;100.00;102027.06;5079029;28;20032;-70
2022/10/29 05:29:58;;;;;;;21.13;7.50;;;;;;;11.50;100.00;102030.16;5086518;28;20074;-71
2022/10/29 05:32:23;;;;;;;14.47;7.40;;;;;;;11.49;100.00;102011.97;5088622;28;20039;-70
2022/10/29 05:34:48;;;;;;;22.00;7.80;;;;;;;11.51;100.00;102021.75;5086103;28;20043;-70
2022/10/29 05:37:14;;;;;;;17.73;7.70;;;;;;;11.51;100.00;102026.38;5069911;28;20028;-70
2022/10/29 05:39:39;;;;;;;14.30;6.37;;;;;;;11.49;100.00;102033.91;5088169;28;20479;-72
2022/10/29 05:42:05;;;;;;;20.90;7.47;;;;;;;11.49;100.00;102036.66;5087181;28;20133;-69
2022/10/29 05:44:30;;;;;;;14.80;7.90;;;;;;;11.51;100.00;102035.47;5079494;28;20062;-70
2022/10/29 05:46:55;;;;;;;20.43;8.07;;;;;;;11.47;100.00;102030.50;5071081;28;20032;-72
2022/10/29 05:49:21;;;;;;;16.83;8.40;;;;;;;11.45;100.00;102029.81;5069123;28;20122;-71
2022/10/29 05:51:46;;;;;;;20.67;8.23;;;;;;;11.46;100.00;102034.25;5088779;28;20040;-70
2022/10/29 05:54:11;;;;;;;23.73;8.27;;;;;;;11.44;100.00;102028.97;5070200;28;20024;-69
2022/10/29 05:56:37;;;;;;;18.93;8.10;;;;;;;11.48;100.00;102029.47;5087953;28;20439;-70
2022/10/29 05:59:02;;;;;;;12.67;7.53;;;;;;;11.47;100.00;102033.25;5080540;28;20084;-70
2022/10/29 06:01:27;;;;;;;15.10;7.67;;;;;;;11.50;100.00;102039.25;5088472;28;20024;-70
2022/10/29 06:03:53;;;;;;;23.00;8.30;;;;;;;11.55;100.00;102044.19;5087814;28;20028;-72
2022/10/29 06:06:18;;;;;;;29.37;8.93;;;;;;;11.56;100.00;102043.16;5086453;28;20113;-70
2022/10/29 06:08:43;;;;;;;22.03;7.77;;;;;;;11.60;100.00;102039.06;5087531;28;20038;-70
2022/10/29 06:11:08;;;;;;;25.97;8.57;;;;;;;11.63;100.00;102025.84;5069310;28;20380;-70
2022/10/29 06:13:35;;;;;;;15.87;7.77;;;;;;;11.69;100.00;102021.56;5088882;28;20032;-69
2022/10/29 06:16:00;;;;;;;19.52;8.00;;;;;;;11.70;100.00;102015.03;5083390;28;20024;-71
2022/10/29 06:18:26;;;;;;;13.97;9.07;;;;;;;11.72;100.00;102018.44;5084901;28;20062;-70
2022/10/29 06:20:53;;;;;;;25.25;10.68;;;;;;;11.74;100.00;102019.16;5084936;28;20381;-71
2022/10/29 06:23:18;;;;;;;24.95;11.63;;;;;;;11.88;100.00;102011.03;5065603;28;20056;-70
2022/10/29 06:25:43;;;;;;;39.67;11.27;;;;;;;11.93;100.00;102002.25;5083853;28;20064;-70
2022/10/29 06:28:13;;;;;;;28.67;11.43;;;;;;;11.99;100.00;102004.28;5084114;28;20032;-70
2022/10/29 06:30:40;;;;;;;29.88;12.43;;;;;;;12.06;100.00;102000.66;5081028;28;20027;-70
2022/10/29 06:33:05;;;;;;;31.25;12.25;;;;;;;12.13;100.00;101996.19;5085129;28;20036;-70
2022/10/29 06:35:31;;;;;;;28.90;12.33;;;;;;;12.18;100.00;102003.88;5081129;28;20060;-71
2022/10/29 06:37:57;;;;;;;27.37;13.83;;;;;;;12.23;100.00;101995.94;5084692;28;20035;-69
2022/10/29 06:40:22;;;;;;;26.13;11.80;;;;;;;12.30;100.00;101994.19;5088521;28;20075;-69
2022/10/29 06:42:47;;;;;;;24.73;12.23;;;;;;;12.34;100.00;102009.28;5087187;28;20028;-69
2022/10/29 06:45:13;;;;;;;22.40;13.20;;;;;;;12.46;100.00;102021.56;5081400;28;20027;-72
2022/10/29 06:47:43;;;;;;;33.13;14.23;;;;;;;12.58;100.00;102017.34;5083583;28;20027;-71
2022/10/29 06:50:10;;;;;;;34.50;14.52;;;;;;;12.61;100.00;102008.75;5084856;28;20020;-71
2022/10/29 06:52:36;;;;;;;28.30;14.13;;;;;;;12.68;100.00;102015.22;5085309;28;20036;-70
2022/10/29 06:55:01;;;;;;;31.27;15.03;;;;;;;12.80;100.00;102019.28;5088486;28;20479;-71
2022/10/29 06:57:28;;;;;;;34.63;15.17;;;;;;;12.81;100.00;102012.75;5074043;28;20162;-71
2022/10/29 06:59:53;;;;;;;38.17;16.33;;;;;;;12.86;100.00;102016.63;5091622;28;20408;-71
2022/10/29 07:02:20;;;;;;;30.77;15.83;;;;;;;12.94;100.00;102019.34;5089676;28;20124;-70
2022/10/29 07:04:45;;;;;;;33.47;14.82;;;;;;;13.02;100.00;102012.97;5091466;28;20028;-70
2022/10/29 07:07:10;;;;;;;29.43;15.13;;;;;;;13.07;100.00;102010.50;5091238;28;20040;-70
2022/10/29 07:09:36;;;;;;;33.97;15.47;;;;;;;13.11;100.00;102014.56;5087541;28;20032;-70
2022/10/29 07:12:01;;;;;;;27.80;13.97;;;;;;;13.13;100.00;102005.09;5066675;28;20498;-71
2022/10/29 07:14:26;;;;;;;33.93;14.80;;;;;;;13.18;100.00;102004.56;5087876;28;20039;-71
2022/10/29 07:16:52;;;;;;;46.23;15.10;;;;;;;13.19;100.00;101993.34;5086938;28;20032;-71
2022/10/29 07:19:17;;;;;;;39.93;15.70;;;;;;;13.23;100.00;101988.34;5088973;28;20032;-70
2022/10/29 07:21:43;;;;;;;31.47;14.47;;;;;;;13.27;100.00;101986.91;5090874;28;20044;-71
2022/10/29 07:24:08;;;;;;;34.70;15.40;;;;;;;13.32;100.00;101987.22;5073456;28;20040;-70
2022/10/29 07:26:35;;;;;;;34.33;15.03;;;;;;;13.37;100.00;101993.88;5090048;28;20419;-69
2022/10/29 07:29:00;;;;;;;32.03;16.10;;;;;;;13.37;100.00;101996.63;5091705;28;20044;-70
2022/10/29 07:31:25;;;;;;;29.87;15.30;;;;;;;13.45;100.00;101995.69;5090080;28;20024;-70
2022/10/29 07:33:51;;;;;;;30.67;14.93;;;;;;;13.45;100.00;102004.78;5083860;28;20429;-71
2022/10/29 07:36:16;;;;;;;31.07;15.23;;;;;;;13.54;100.00;101995.41;5091209;28;20185;-70
2022/10/29 07:38:41;;;;;;;34.60;14.70;;;;;;;13.56;100.00;101990.56;5073591;28;20391;-69
2022/10/29 07:41:07;;;;;;;36.07;15.40;;;;;;;13.66;100.00;101996.66;5088609;28;20093;-70
2022/10/29 07:43:32;;;;;;;33.87;14.53;;;;;;;13.67;100.00;101989.25;5056772;28;20724;-69
2022/10/29 07:45:57;;;;;;;42.80;15.03;;;;;;;13.71;100.00;101979.56;5091438;28;20081;-70
2022/10/29 07:48:23;;;;;;;35.07;15.30;;;;;;;13.82;100.00;101981.84;5088805;28;20035;-71
2022/10/29 07:50:49;;;;;;;32.87;15.80;;;;;;;13.94;100.00;101977.56;5089242;28;20059;-72
2022/10/29 07:53:14;;;;;;;35.43;16.03;;;;;;;14.08;100.00;101974.78;5091665;28;20032;-71
2022/10/29 07:55:40;;;;;;;42.20;15.53;;;;;;;14.12;100.00;101976.09;5087693;28;20074;-69
2022/10/29 07:58:08;;;;;;;41.50;15.03;;;;;;;14.18;100.00;101978.09;5081403;28;20032;-71
2022/10/29 08:00:36;;;;;;;25.48;14.85;;;;;;;14.26;100.00;101971.66;5058084;28;20523;-72
2022/10/29 08:03:03;;;;;;;31.60;15.27;;;;;;;14.34;100.00;101971.50;5084053;28;20406;-72
2022/10/29 08:05:29;;;;;;;47.22;16.23;;;;;;;14.41;100.00;101965.03;5079084;28;20483;-72
2022/10/29 08:07:55;;;;;;;31.52;15.07;;;;;;;14.56;100.00;101973.28;5081310;28;20112;-70
2022/10/29 08:10:22;;;;;;;40.22;17.58;;;;;;;14.64;100.00;101979.53;5087254;28;20023;-70
2022/10/29 08:12:53;;;;;;;33.80;15.15;;;;;;;14.78;100.00;101980.50;5077347;28;20044;-70
2022/10/29 08:15:18;;;;;;;37.03;16.55;;;;;;;14.97;100.00;101985.34;5068055;28;20051;-70
2022/10/29 08:17:44;;;;;;;30.30;15.67;;;;;;;15.08;100.00;101979.28;5085376;28;20044;-70
2022/10/29 08:20:10;;;;;;;39.17;16.27;;;;;;;15.16;100.00;101981.94;5088347;28;20070;-71
2022/10/29 08:22:35;;;;;;;38.57;17.07;;;;;;;15.25;100.00;101987.09;5054067;28;20024;-70
2022/10/29 08:25:01;;;;;;;32.47;15.50;;;;;;;15.30;100.00;101989.25;5086307;28;20028;-71
2022/10/29 08:27:26;;;;;;;28.47;14.33;;;;;;;15.36;100.00;101991.25;5082262;28;20046;-71
2022/10/29 08:29:52;;;;;;;36.07;15.13;;;;;;;15.39;100.00;101979.81;5087074;28;20034;-71
2022/10/29 08:32:17;;;;;;;40.00;14.53;;;;;;;15.42;100.00;101984.94;5086567;28;20371;-70
2022/10/29 08:34:42;;;;;;;33.47;14.20;;;;;;;15.40;100.00;101985.13;5066607;28;20028;-71
2022/10/29 08:37:08;;;;;;;35.90;13.73;;;;;;;15.44;100.00;101991.97;5080852;28;20024;-70
2022/10/29 08:39:33;;;;;;;34.47;15.00;;;;;;;15.52;100.00;101975.22;5065928;28;20031;-70
2022/10/29 08:42:10;;;;;;;36.37;14.33;;;;;;;15.50;100.00;101977.34;5066434;28;20614;-70
2022/10/29 08:44:54;;;;;;;34.50;13.85;;;;;;;15.55;100.00;101972.06;5086322;28;20486;-69
2022/10/29 08:47:22;;;;;;;31.05;13.18;;;;;;;15.54;100.00;101973.09;5064463;28;20046;-70
2022/10/29 08:49:59;;;;;;;30.50;13.57;;;;;;;15.57;100.00;101966.31;5064775;28;20039;-70
2022/10/29 08:52:29;;;;;;;;;;;;;;;15.61;100.00;101968.50;5065911;28;20119;-70
2022/10/29 08:55:13;;;;;;;37.95;13.05;;;;;;;15.71;100.00;101954.31;5085401;28;19948;-71
2022/10/29 08:57:46;;;;;;;24.23;13.30;;;;;;;15.71;100.00;101957.94;5081187;28;20035;-72
2022/10/29 09:00:21;;;;;;;29.90;13.20;;;;;;;15.74;100.00;101945.63;5072462;28;20024;-70
2022/10/29 09:02:53;;;;;;;31.20;12.77;;;;;;;15.78;100.00;101952.44;5086938;28;20028;-70
2022/10/29 09:05:23;;;;;;;29.67;13.73;;;;;;;15.83;100.00;101942.47;5082911;28;20062;-71
2022/10/29 09:08:07;;;;;;;26.15;12.55;;;;;;;15.83;100.00;101941.63;5080304;28;21312;-70
2022/10/29 09:10:42;;;;;;;34.10;13.50;;;;;;;15.90;100.00;101942.53;5074270;28;20027;-71
2022/10/29 09:13:50;;;;;;;33.65;12.85;;;;;;;15.89;100.00;101943.56;5081739;28;20063;-70
2022/10/29 09:16:49;;;;;;;32.88;14.35;;;;;;;15.87;100.00;101941.03;5079581;28;20035;-71
2022/10/29 09:19:47;;;;;;;28.95;12.63;;;;;;;15.90;100.00;101945.28;5074757;28;20118;-70
2022/10/29 09:22:53;;;;;;;31.88;12.55;;;;;;;15.96;100.00;101936.19;5064664;28;20522;-71
2022/10/29 09:25:28;;;;;;;46.42;13.18;;;;;;;15.98;100.00;101914.69;5082855;28;20028;-70
2022/10/29 09:28:12;;;;;;;33.70;12.85;;;;;;;15.94;100.00;101918.91;5083984;28;20484;-71
2022/10/29 09:30:59;;;;;;;32.10;12.43;;;;;;;15.99;100.00;101908.97;5084258;28;20028;-70
2022/10/29 09:33:25;;;;;;;25.65;11.98;;;;;;;15.97;100.00;101908.34;5080388;28;20497;-70
2022/10/29 09:35:57;;;;;;;27.85;12.30;;;;;;;16.02;100.00;101927.06;5082774;28;20031;-69
2022/10/29 09:38:31;;;;;;;35.85;12.73;;;;;;;16.20;100.00;101930.09;5085622;28;20053;-69
2022/10/29 09:40:59;;;;;;;32.67;13.02;;;;;;;16.19;100.00;101931.16;5083324;28;20381;-71
2022/10/29 09:43:33;;;;;;;25.17;12.40;;;;;;;16.28;100.00;101935.44;5077388;28;20119;-70
2022/10/29 09:46:11;;;;;;;33.47;13.75;;;;;;;16.41;100.00;101941.91;5082148;28;20036;-71
2022/10/29 09:48:48;;;;;;;29.85;12.48;;;;;;;16.57;100.00;101937.88;5082652;28;20020;-70
2022/10/29 09:51:16;;;;;;;28.98;13.13;;;;;;;16.60;100.00;101918.94;5078535;28;20035;-70
2022/10/29 09:53:42;;;;;;;28.92;12.90;;;;;;;16.66;99.99;101915.34;5084411;28;20039;-70
2022/10/29 09:56:08;;;;;;;29.90;11.80;;;;;;;16.68;99.52;101907.69;5083715;28;20028;-70
2022/10/29 09:58:38;;;;;;;31.25;11.65;;;;;;;16.69;98.79;101908.53;5083387;28;20654;-71
2022/10/29 10:01:03;;;;;;;29.67;12.80;;;;;;;16.77;98.49;101906.44;5065660;28;20119;-70
2022/10/29 10:03:36;;;;;;;31.87;11.50;;;;;;;16.82;98.51;101909.38;5084731;28;20450;-71
2022/10/29 10:06:07;;;;;;;27.00;11.75;;;;;;;16.99;97.04;101907.94;5080450;28;20112;-70
2022/10/29 10:08:34;;;;;;;28.48;11.98;;;;;;;17.01;96.30;101905.78;5086490;28;20054;-70
2022/10/29 10:11:03;;;;;;;25.92;10.85;;;;;;;17.04;97.13;101888.75;5085152;28;20404;-71
2022/10/29 10:13:34;;;;;;;31.02;12.02;;;;;;;17.08;95.92;101875.34;5081981;28;20031;-69
2022/10/29 10:16:03;;;;;;;21.60;10.45;;;;;;;17.09;96.08;101877.03;5087296;28;20044;-70
2022/10/29 10:18:31;;;;;;;29.67;11.18;;;;;;;17.35;94.92;101879.75;5088477;28;20008;-70
2022/10/29 10:21:10;;;;;;;30.35;11.13;;;;;;;17.43;94.35;101871.25;5089193;28;20028;-71
2022/10/29 10:23:41;;;;;;;27.00;10.43;;;;;;;17.48;94.38;101868.66;5086728;28;20070;-71
2022/10/29 10:26:28;;;;;;;28.27;10.35;;;;;;;17.57;94.41;101871.00;5087530;28;20059;-70
2022/10/29 10:29:11;;;;;;;37.35;10.20;;;;;;;17.77;93.28;101887.56;5086607;28;20055;-71
2022/10/29 10:31:38;;;;;;;23.02;10.45;;;;;;;18.28;92.17;101886.47;5081133;28;20039;-70
2022/10/29 10:34:20;;;;;;;19.55;9.07;;;;;;;18.66;90.92;101883.66;5087161;28;20064;-70
2022/10/29 10:37:02;;;;;;;24.08;9.30;;;;;;;18.94;89.25;101886.88;5086811;28;20038;-70
2022/10/29 10:39:33;;;;;;;20.33;8.32;;;;;;;19.05;88.03;101903.63;5086554;28;20162;-69
2022/10/29 10:42:02;;;;;;;23.27;8.45;;;;;;;19.16;85.46;101889.00;5087221;28;20024;-71
2022/10/29 10:44:28;;;;;;;16.30;7.63;;;;;;;19.33;84.70;101886.53;5088445;28;20024;-70
2022/10/29 10:46:57;;;;;;;21.30;8.03;;;;;;;19.35;84.53;101889.94;5088009;28;20032;-71
2022/10/29 10:49:35;;;;;;;17.90;7.72;;;;;;;19.53;84.42;101892.75;5085793;28;20031;-71
2022/10/29 10:52:04;;;;;;;15.55;7.13;;;;;;;19.68;83.69;101890.44;5085533;28;20033;-71
2022/10/29 10:54:37;;;;;;;27.45;8.07;;;;;;;19.70;82.45;101888.28;5086049;28;20408;-71
2022/10/29 10:57:11;;;;;;;19.23;7.95;;;;;;;19.64;82.42;101875.31;5081106;28;20095;-72
2022/10/29 10:59:56;;;;;;;24.98;7.95;;;;;;;19.31;82.58;101860.91;5084691;28;20066;-71
2022/10/29 11:02:45;;;;;;;12.18;7.75;;;;;;;19.17;83.50;101873.19;5086473;28;20031;-70
2022/10/29 11:05:16;;;;;;;18.27;7.30;;;;;;;19.13;84.49;101869.16;5086090;28;20074;-70
2022/10/29 11:08:04;;;;;;;24.20;8.48;;;;;;;19.16;84.76;101879.84;5081757;28;20110;-70
2022/10/29 11:10:45;;;;;;;36.05;9.43;;;;;;;19.16;84.64;101880.66;5085829;28;20070;-74
2022/10/29 11:13:23;;;;;;;27.45;8.45;;;;;;;19.18;85.20;101866.56;5086292;28;20032;-74
2022/10/29 11:16:11;;;;;;;33.33;8.40;;;;;;;19.25;83.64;101859.91;5064626;28;20518;-73